Terminal Aerodrome Forecast
Issued by NWS

Home | Current Version | Previous Version | Text Only | Print | Product List | Glossary Off
Versions: 1 2 3 4 5 6 7 8 9 10 11 12 13 14 15 16 17 18

000
FTUS43 KMPX 192320
TAFRWF
TAF
KRWF 192320Z 2000/2024 12012G18KT P6SM BKN090
     FM200200 12007KT P6SM VCTS BKN050CB OVC100
      TEMPO 2005/2007 4SM -TSRA BKN035CB OVC050
     FM200700 35005KT P6SM SCT250
     FM201800 03007KT P6SM SKC=

USA.gov is the U.S. government's official web portal to all federal, state and local government web resources and services.